sensor_id;sensor_type;location;lat;lon;timestamp;P1;durP1;ratioP1;P2;durP2;ratioP2
30289;SDS011;17105;55.652;37.710;2023-03-25T00:00:02;8.90;;;3.38;;
30289;SDS011;17105;55.652;37.710;2023-03-25T00:00:47;6.65;;;2.53;;
30289;SDS011;17105;55.652;37.710;2023-03-25T00:01:24;5.97;;;2.28;;
30289;SDS011;17105;55.652;37.710;2023-03-25T00:02:02;7.28;;;2.67;;
30289;SDS011;17105;55.652;37.710;2023-03-25T00:02:37;10.40;;;2.60;;
30289;SDS011;17105;55.652;37.710;2023-03-25T00:03:13;6.30;;;2.58;;
30289;SDS011;17105;55.652;37.710;2023-03-25T00:03:49;7.82;;;3.08;;
30289;SDS011;17105;55.652;37.710;2023-03-25T00:04:26;4.75;;;2.50;;
30289;SDS011;17105;55.652;37.710;2023-03-25T00:05:02;9.30;;;3.25;;
30289;SDS011;17105;55.652;37.710;2023-03-25T00:05:38;7.88;;;3.15;;
30289;SDS011;17105;55.652;37.710;2023-03-25T00:06:13;7.43;;;2.97;;
30289;SDS011;17105;55.652;37.710;2023-03-25T00:06:49;7.03;;;2.50;;
30289;SDS011;17105;55.652;37.710;2023-03-25T00:07:22;8.88;;;2.90;;
30289;SDS011;17105;55.652;37.710;2023-03-25T00:07:57;10.80;;;2.65;;
30289;SDS011;17105;55.652;37.710;2023-03-25T00:08:33;7.85;;;3.28;;
30289;SDS011;17105;55.652;37.710;2023-03-25T00:09:07;6.65;;;2.70;;
30289;SDS011;17105;55.652;37.710;2023-03-25T00:09:42;6.72;;;3.25;;
30289;SDS011;17105;55.652;37.710;2023-03-25T00:10:16;6.82;;;2.92;;
30289;SDS011;17105;55.652;37.710;2023-03-25T00:10:51;6.75;;;3.03;;
30289;SDS011;17105;55.652;37.710;2023-03-25T00:11:26;7.25;;;3.25;;
30289;SDS011;17105;55.652;37.710;2023-03-25T00:12:01;7.70;;;3.15;;
30289;SDS011;17105;55.652;37.710;2023-03-25T00:12:35;6.53;;;2.92;;
30289;SDS011;17105;55.652;37.710;2023-03-25T00:13:10;9.35;;;3.20;;
30289;SDS011;17105;55.652;37.710;2023-03-25T00:13:46;7.72;;;2.65;;
30289;SDS011;17105;55.652;37.710;2023-03-25T00:14:21;7.40;;;3.10;;
30289;SDS011;17105;55.652;37.710;2023-03-25T00:14:56;6.28;;;2.90;;
30289;SDS011;17105;55.652;37.710;2023-03-25T00:15:31;7.47;;;2.85;;
30289;SDS011;17105;55.652;37.710;2023-03-25T00:16:07;10.32;;;2.85;;
30289;SDS011;17105;55.652;37.710;2023-03-25T00:16:42;6.03;;;2.83;;
30289;SDS011;17105;55.652;37.710;2023-03-25T00:17:20;6.53;;;2.80;;
30289;SDS011;17105;55.652;37.710;2023-03-25T00:17:55;7.32;;;2.88;;
30289;SDS011;17105;55.652;37.710;2023-03-25T00:18:29;13.43;;;4.82;;
30289;SDS011;17105;55.652;37.710;2023-03-25T00:19:06;8.13;;;3.50;;
30289;SDS011;17105;55.652;37.710;2023-03-25T00:19:41;9.13;;;3.00;;
30289;SDS011;17105;55.652;37.710;2023-03-25T00:20:16;7.03;;;3.33;;
30289;SDS011;17105;55.652;37.710;2023-03-25T00:20:51;8.70;;;3.10;;
30289;SDS011;17105;55.652;37.710;2023-03-25T00:21:25;7.90;;;2.88;;
30289;SDS011;17105;55.652;37.710;2023-03-25T00:22:02;8.32;;;2.92;;
30289;SDS011;17105;55.652;37.710;2023-03-25T00:22:37;6.82;;;2.70;;
30289;SDS011;17105;55.652;37.710;2023-03-25T00:23:13;7.63;;;2.97;;
30289;SDS011;17105;55.652;37.710;2023-03-25T00:23:51;11.02;;;3.45;;
30289;SDS011;17105;55.652;37.710;2023-03-25T00:24:24;8.45;;;3.17;;
30289;SDS011;17105;55.652;37.710;2023-03-25T00:24:59;6.43;;;2.70;;
30289;SDS011;17105;55.652;37.710;2023-03-25T00:25:34;7.13;;;2.70;;
30289;SDS011;17105;55.652;37.710;2023-03-25T00:26:09;7.00;;;2.85;;
30289;SDS011;17105;55.652;37.710;2023-03-25T00:26:44;9.18;;;2.88;;
30289;SDS011;17105;55.652;37.710;2023-03-25T00:27:20;8.65;;;2.75;;
30289;SDS011;17105;55.652;37.710;2023-03-25T00:27:56;10.18;;;2.60;;
30289;SDS011;17105;55.652;37.710;2023-03-25T00:28:30;8.30;;;3.42;;
30289;SDS011;17105;55.652;37.710;2023-03-25T00:29:05;6.45;;;2.38;;
30289;SDS011;17105;55.652;37.710;2023-03-25T00:29:44;9.05;;;2.92;;
30289;SDS011;17105;55.652;37.710;2023-03-25T00:30:17;6.88;;;3.08;;
30289;SDS011;17105;55.652;37.710;2023-03-25T00:30:54;6.85;;;2.72;;
30289;SDS011;17105;55.652;37.710;2023-03-25T00:31:32;9.57;;;3.08;;
30289;SDS011;17105;55.652;37.710;2023-03-25T00:32:06;8.30;;;2.60;;
30289;SDS011;17105;55.652;37.710;2023-03-25T00:32:42;11.85;;;2.85;;
30289;SDS011;17105;55.652;37.710;2023-03-25T00:33:17;7.32;;;2.80;;
30289;SDS011;17105;55.652;37.710;2023-03-25T00:33:54;9.52;;;2.72;;
30289;SDS011;17105;55.652;37.710;2023-03-25T00:34:31;7.03;;;2.50;;
30289;SDS011;17105;55.652;37.710;2023-03-25T00:35:07;7.50;;;2.90;;
30289;SDS011;17105;55.652;37.710;2023-03-25T00:35:42;8.77;;;2.70;;
30289;SDS011;17105;55.652;37.710;2023-03-25T00:36:20;7.00;;;2.63;;
30289;SDS011;17105;55.652;37.710;2023-03-25T00:36:54;9.57;;;2.70;;
30289;SDS011;17105;55.652;37.710;2023-03-25T00:37:30;7.10;;;3.08;;
30289;SDS011;17105;55.652;37.710;2023-03-25T00:38:04;5.70;;;2.55;;
30289;SDS011;17105;55.652;37.710;2023-03-25T00:38:39;5.65;;;2.70;;
30289;SDS011;17105;55.652;37.710;2023-03-25T00:39:16;6.53;;;2.78;;
30289;SDS011;17105;55.652;37.710;2023-03-25T00:39:50;6.18;;;2.55;;
30289;SDS011;17105;55.652;37.710;2023-03-25T00:40:25;9.73;;;2.85;;
30289;SDS011;17105;55.652;37.710;2023-03-25T00:41:07;7.05;;;2.85;;
30289;SDS011;17105;55.652;37.710;2023-03-25T00:41:41;6.10;;;2.42;;
30289;SDS011;17105;55.652;37.710;2023-03-25T00:42:17;4.93;;;1.98;;
30289;SDS011;17105;55.652;37.710;2023-03-25T00:42:57;5.15;;;2.30;;
30289;SDS011;17105;55.652;37.710;2023-03-25T00:43:32;7.18;;;2.90;;
30289;SDS011;17105;55.652;37.710;2023-03-25T00:44:08;7.45;;;2.55;;
30289;SDS011;17105;55.652;37.710;2023-03-25T00:44:43;9.18;;;2.70;;
30289;SDS011;17105;55.652;37.710;2023-03-25T00:45:18;8.27;;;2.88;;
30289;SDS011;17105;55.652;37.710;2023-03-25T00:45:54;5.78;;;2.35;;
30289;SDS011;17105;55.652;37.710;2023-03-25T00:46:28;9.82;;;2.67;;
30289;SDS011;17105;55.652;37.710;2023-03-25T00:47:04;6.32;;;2.90;;
30289;SDS011;17105;55.652;37.710;2023-03-25T00:47:39;7.97;;;2.38;;
30289;SDS011;17105;55.652;37.710;2023-03-25T00:48:12;6.63;;;2.47;;
30289;SDS011;17105;55.652;37.710;2023-03-25T00:48:47;6.65;;;2.70;;
30289;SDS011;17105;55.652;37.710;2023-03-25T00:49:24;5.20;;;2.38;;
30289;SDS011;17105;55.652;37.710;2023-03-25T00:50:00;6.57;;;2.47;;
30289;SDS011;17105;55.652;37.710;2023-03-25T00:50:35;7.00;;;2.50;;
30289;SDS011;17105;55.652;37.710;2023-03-25T00:51:11;7.00;;;2.60;;
30289;SDS011;17105;55.652;37.710;2023-03-25T00:51:53;7.03;;;2.45;;
30289;SDS011;17105;55.652;37.710;2023-03-25T00:52:28;5.88;;;2.60;;
30289;SDS011;17105;55.652;37.710;2023-03-25T00:53:02;8.73;;;2.85;;
30289;SDS011;17105;55.652;37.710;2023-03-25T00:53:36;5.03;;;2.45;;
30289;SDS011;17105;55.652;37.710;2023-03-25T00:54:10;8.60;;;2.58;;
30289;SDS011;17105;55.652;37.710;2023-03-25T00:54:45;5.97;;;2.50;;
30289;SDS011;17105;55.652;37.710;2023-03-25T00:55:20;6.95;;;2.85;;
30289;SDS011;17105;55.652;37.710;2023-03-25T00:55:56;6.90;;;2.65;;
30289;SDS011;17105;55.652;37.710;2023-03-25T00:56:29;6.38;;;2.50;;
30289;SDS011;17105;55.652;37.710;2023-03-25T00:57:03;5.03;;;2.25;;
30289;SDS011;17105;55.652;37.710;2023-03-25T00:57:38;5.60;;;2.42;;
30289;SDS011;17105;55.652;37.710;2023-03-25T00:58:15;5.95;;;2.80;;
30289;SDS011;17105;55.652;37.710;2023-03-25T00:58:48;7.28;;;2.42;;
30289;SDS011;17105;55.652;37.710;2023-03-25T00:59:23;8.77;;;2.53;;
30289;SDS011;17105;55.652;37.710;2023-03-25T00:59:57;6.78;;;2.85;;
30289;SDS011;17105;55.652;37.710;2023-03-25T01:00:32;6.30;;;2.60;;
30289;SDS011;17105;55.652;37.710;2023-03-25T01:01:08;7.15;;;2.88;;
30289;SDS011;17105;55.652;37.710;2023-03-25T01:01:44;7.25;;;2.58;;
30289;SDS011;17105;55.652;37.710;2023-03-25T01:02:21;7.85;;;2.97;;
30289;SDS011;17105;55.652;37.710;2023-03-25T01:02:57;6.35;;;2.42;;
30289;SDS011;17105;55.652;37.710;2023-03-25T01:03:36;6.38;;;2.67;;
30289;SDS011;17105;55.652;37.710;2023-03-25T01:04:11;7.82;;;2.78;;
30289;SDS011;17105;55.652;37.710;2023-03-25T01:04:48;7.82;;;2.38;;
30289;SDS011;17105;55.652;37.710;2023-03-25T01:05:22;6.15;;;2.83;;
30289;SDS011;17105;55.652;37.710;2023-03-25T01:05:56;4.82;;;2.38;;
30289;SDS011;17105;55.652;37.710;2023-03-25T01:06:32;6.50;;;2.53;;
30289;SDS011;17105;55.652;37.710;2023-03-25T01:07:05;9.98;;;2.80;;
30289;SDS011;17105;55.652;37.710;2023-03-25T01:07:40;6.80;;;2.88;;
30289;SDS011;17105;55.652;37.710;2023-03-25T01:08:16;5.82;;;2.13;;
30289;SDS011;17105;55.652;37.710;2023-03-25T01:09:30;5.82;;;2.58;;
30289;SDS011;17105;55.652;37.710;2023-03-25T01:10:07;8.15;;;3.42;;
30289;SDS011;17105;55.652;37.710;2023-03-25T01:10:43;5.18;;;2.35;;
30289;SDS011;17105;55.652;37.710;2023-03-25T01:11:19;6.82;;;2.67;;
30289;SDS011;17105;55.652;37.710;2023-03-25T01:11:54;7.30;;;2.88;;
30289;SDS011;17105;55.652;37.710;2023-03-25T01:12:28;7.97;;;2.70;;
30289;SDS011;17105;55.652;37.710;2023-03-25T01:13:02;6.43;;;2.83;;
30289;SDS011;17105;55.652;37.710;2023-03-25T01:13:36;8.05;;;2.42;;
30289;SDS011;17105;55.652;37.710;2023-03-25T01:14:11;9.27;;;3.40;;
30289;SDS011;17105;55.652;37.710;2023-03-25T01:14:47;11.27;;;2.75;;
30289;SDS011;17105;55.652;37.710;2023-03-25T01:15:21;5.55;;;2.38;;
30289;SDS011;17105;55.652;37.710;2023-03-25T01:15:55;16.50;;;4.50;;
30289;SDS011;17105;55.652;37.710;2023-03-25T01:16:34;70.47;;;29.20;;
30289;SDS011;17105;55.652;37.710;2023-03-25T01:17:10;277.85;;;105.85;;
30289;SDS011;17105;55.652;37.710;2023-03-25T01:17:44;733.50;;;286.20;;
30289;SDS011;17105;55.652;37.710;2023-03-25T01:18:19;423.13;;;151.15;;
30289;SDS011;17105;55.652;37.710;2023-03-25T01:18:54;138.40;;;50.70;;
30289;SDS011;17105;55.652;37.710;2023-03-25T01:19:29;42.40;;;20.65;;
30289;SDS011;17105;55.652;37.710;2023-03-25T01:20:06;14.05;;;7.55;;
30289;SDS011;17105;55.652;37.710;2023-03-25T01:20:41;10.55;;;6.55;;
30289;SDS011;17105;55.652;37.710;2023-03-25T01:21:14;10.93;;;4.60;;
30289;SDS011;17105;55.652;37.710;2023-03-25T01:21:56;12.15;;;4.35;;
30289;SDS011;17105;55.652;37.710;2023-03-25T01:22:30;6.40;;;2.95;;
30289;SDS011;17105;55.652;37.710;2023-03-25T01:23:07;8.23;;;2.83;;
30289;SDS011;17105;55.652;37.710;2023-03-25T01:23:45;9.15;;;3.20;;
30289;SDS011;17105;55.652;37.710;2023-03-25T01:24:18;5.00;;;2.63;;
30289;SDS011;17105;55.652;37.710;2023-03-25T01:24:52;9.27;;;3.25;;
30289;SDS011;17105;55.652;37.710;2023-03-25T01:25:28;9.55;;;3.10;;
30289;SDS011;17105;55.652;37.710;2023-03-25T01:26:03;6.90;;;2.65;;
30289;SDS011;17105;55.652;37.710;2023-03-25T01:26:37;8.55;;;2.65;;
30289;SDS011;17105;55.652;37.710;2023-03-25T01:27:12;9.77;;;3.65;;
30289;SDS011;17105;55.652;37.710;2023-03-25T01:27:45;10.68;;;3.10;;
30289;SDS011;17105;55.652;37.710;2023-03-25T01:28:20;6.85;;;2.70;;
30289;SDS011;17105;55.652;37.710;2023-03-25T01:28:57;7.95;;;2.72;;
30289;SDS011;17105;55.652;37.710;2023-03-25T01:29:30;7.47;;;3.40;;
30289;SDS011;17105;55.652;37.710;2023-03-25T01:30:05;8.93;;;3.08;;
30289;SDS011;17105;55.652;37.710;2023-03-25T01:30:40;7.65;;;3.22;;
30289;SDS011;17105;55.652;37.710;2023-03-25T01:31:14;9.70;;;3.10;;
30289;SDS011;17105;55.652;37.710;2023-03-25T01:31:48;7.53;;;2.95;;
30289;SDS011;17105;55.652;37.710;2023-03-25T01:32:28;11.50;;;3.50;;
30289;SDS011;17105;55.652;37.710;2023-03-25T01:33:02;8.70;;;3.25;;
30289;SDS011;17105;55.652;37.710;2023-03-25T01:33:36;8.30;;;3.17;;
30289;SDS011;17105;55.652;37.710;2023-03-25T01:34:11;7.15;;;3.58;;
30289;SDS011;17105;55.652;37.710;2023-03-25T01:34:46;9.10;;;3.60;;
30289;SDS011;17105;55.652;37.710;2023-03-25T01:35:21;13.15;;;3.45;;
30289;SDS011;17105;55.652;37.710;2023-03-25T01:35:56;8.48;;;3.20;;
30289;SDS011;17105;55.652;37.710;2023-03-25T01:36:31;7.53;;;3.22;;
30289;SDS011;17105;55.652;37.710;2023-03-25T01:37:08;10.40;;;3.08;;
30289;SDS011;17105;55.652;37.710;2023-03-25T01:37:43;9.77;;;3.10;;
30289;SDS011;17105;55.652;37.710;2023-03-25T01:38:19;12.70;;;3.65;;
30289;SDS011;17105;55.652;37.710;2023-03-25T01:38:53;10.15;;;3.50;;
30289;SDS011;17105;55.652;37.710;2023-03-25T01:39:28;7.72;;;3.30;;
30289;SDS011;17105;55.652;37.710;2023-03-25T01:40:04;8.05;;;3.38;;
30289;SDS011;17105;55.652;37.710;2023-03-25T01:40:43;8.68;;;3.10;;
30289;SDS011;17105;55.652;37.710;2023-03-25T01:41:19;9.02;;;3.40;;
30289;SDS011;17105;55.652;37.710;2023-03-25T01:41:53;9.88;;;3.45;;
30289;SDS011;17105;55.652;37.710;2023-03-25T01:42:29;9.07;;;3.15;;
30289;SDS011;17105;55.652;37.710;2023-03-25T01:43:07;13.75;;;3.13;;
30289;SDS011;17105;55.652;37.710;2023-03-25T01:45:26;8.38;;;3.40;;
30289;SDS011;17105;55.652;37.710;2023-03-25T01:46:02;7.68;;;3.05;;
30289;SDS011;17105;55.652;37.710;2023-03-25T01:46:36;8.73;;;3.65;;
30289;SDS011;17105;55.652;37.710;2023-03-25T01:47:11;8.68;;;2.95;;
30289;SDS011;17105;55.652;37.710;2023-03-25T01:47:45;7.07;;;2.97;;
30289;SDS011;17105;55.652;37.710;2023-03-25T01:48:22;9.20;;;3.47;;
30289;SDS011;17105;55.652;37.710;2023-03-25T01:48:57;12.57;;;3.60;;
30289;SDS011;17105;55.652;37.710;2023-03-25T01:49:34;8.05;;;2.92;;
30289;SDS011;17105;55.652;37.710;2023-03-25T01:50:10;8.05;;;3.33;;
30289;SDS011;17105;55.652;37.710;2023-03-25T01:50:48;8.77;;;3.53;;
30289;SDS011;17105;55.652;37.710;2023-03-25T01:51:23;9.32;;;3.10;;
30289;SDS011;17105;55.652;37.710;2023-03-25T01:52:00;8.55;;;2.88;;
30289;SDS011;17105;55.652;37.710;2023-03-25T01:52:37;10.25;;;3.42;;
30289;SDS011;17105;55.652;37.710;2023-03-25T01:53:13;10.35;;;3.25;;
30289;SDS011;17105;55.652;37.710;2023-03-25T01:53:47;11.75;;;3.53;;
30289;SDS011;17105;55.652;37.710;2023-03-25T01:54:24;8.32;;;3.08;;
30289;SDS011;17105;55.652;37.710;2023-03-25T01:54:59;5.53;;;2.75;;
30289;SDS011;17105;55.652;37.710;2023-03-25T01:55:34;8.85;;;3.53;;
30289;SDS011;17105;55.652;37.710;2023-03-25T01:56:15;6.80;;;2.70;;
30289;SDS011;17105;55.652;37.710;2023-03-25T01:56:49;12.27;;;3.95;;
30289;SDS011;17105;55.652;37.710;2023-03-25T01:57:24;9.20;;;2.92;;
30289;SDS011;17105;55.652;37.710;2023-03-25T01:57:59;10.00;;;3.38;;
30289;SDS011;17105;55.652;37.710;2023-03-25T01:58:36;8.75;;;2.88;;
30289;SDS011;17105;55.652;37.710;2023-03-25T01:59:11;10.98;;;3.08;;
30289;SDS011;17105;55.652;37.710;2023-03-25T01:59:46;8.40;;;3.20;;
30289;SDS011;17105;55.652;37.710;2023-03-25T02:00:21;8.40;;;3.10;;
30289;SDS011;17105;55.652;37.710;2023-03-25T02:00:54;7.32;;;2.75;;
30289;SDS011;17105;55.652;37.710;2023-03-25T02:01:29;9.32;;;3.83;;
30289;SDS011;17105;55.652;37.710;2023-03-25T02:02:03;6.90;;;3.00;;
30289;SDS011;17105;55.652;37.710;2023-03-25T02:02:42;6.78;;;2.60;;
30289;SDS011;17105;55.652;37.710;2023-03-25T02:03:18;6.88;;;3.20;;
30289;SDS011;17105;55.652;37.710;2023-03-25T02:03:54;5.28;;;2.63;;
30289;SDS011;17105;55.652;37.710;2023-03-25T02:05:11;6.63;;;2.90;;
30289;SDS011;17105;55.652;37.710;2023-03-25T02:05:50;11.70;;;3.30;;
30289;SDS011;17105;55.652;37.710;2023-03-25T02:06:26;6.15;;;2.72;;
30289;SDS011;17105;55.652;37.710;2023-03-25T02:07:03;6.47;;;2.95;;
30289;SDS011;17105;55.652;37.710;2023-03-25T02:07:42;6.78;;;3.10;;
30289;SDS011;17105;55.652;37.710;2023-03-25T02:08:21;10.18;;;3.22;;
30289;SDS011;17105;55.652;37.710;2023-03-25T02:08:57;7.70;;;3.20;;
30289;SDS011;17105;55.652;37.710;2023-03-25T02:09:31;8.57;;;3.53;;
30289;SDS011;17105;55.652;37.710;2023-03-25T02:10:06;6.78;;;2.75;;
30289;SDS011;17105;55.652;37.710;2023-03-25T02:10:44;10.15;;;3.55;;
30289;SDS011;17105;55.652;37.710;2023-03-25T02:11:19;7.80;;;3.22;;
30289;SDS011;17105;55.652;37.710;2023-03-25T02:11:57;9.13;;;3.03;;
30289;SDS011;17105;55.652;37.710;2023-03-25T02:12:31;11.95;;;2.95;;
30289;SDS011;17105;55.652;37.710;2023-03-25T02:13:06;6.97;;;2.88;;
30289;SDS011;17105;55.652;37.710;2023-03-25T02:13:42;7.70;;;3.13;;
30289;SDS011;17105;55.652;37.710;2023-03-25T02:14:18;7.55;;;3.05;;
30289;SDS011;17105;55.652;37.710;2023-03-25T02:14:53;7.28;;;3.22;;
30289;SDS011;17105;55.652;37.710;2023-03-25T02:15:29;12.02;;;5.20;;
30289;SDS011;17105;55.652;37.710;2023-03-25T02:16:11;18.98;;;8.20;;
30289;SDS011;17105;55.652;37.710;2023-03-25T02:16:51;30.75;;;11.98;;
30289;SDS011;17105;55.652;37.710;2023-03-25T02:17:31;13.75;;;5.78;;
30289;SDS011;17105;55.652;37.710;2023-03-25T02:18:14;67.85;;;23.88;;
30289;SDS011;17105;55.652;37.710;2023-03-25T02:18:56;14.75;;;6.40;;
30289;SDS011;17105;55.652;37.710;2023-03-25T02:19:46;10.65;;;3.63;;
30289;SDS011;17105;55.652;37.710;2023-03-25T02:22:29;7.15;;;3.28;;
30289;SDS011;17105;55.652;37.710;2023-03-25T02:23:15;8.32;;;3.03;;
30289;SDS011;17105;55.652;37.710;2023-03-25T02:25:22;8.23;;;3.15;;
30289;SDS011;17105;55.652;37.710;2023-03-25T02:27:10;7.18;;;2.70;;
30289;SDS011;17105;55.652;37.710;2023-03-25T02:27:51;8.57;;;3.25;;
30289;SDS011;17105;55.652;37.710;2023-03-25T02:28:30;7.45;;;3.28;;
30289;SDS011;17105;55.652;37.710;2023-03-25T02:29:12;10.60;;;3.35;;
30289;SDS011;17105;55.652;37.710;2023-03-25T02:30:08;11.63;;;3.42;;
30289;SDS011;17105;55.652;37.710;2023-03-25T02:30:49;7.65;;;3.55;;
30289;SDS011;17105;55.652;37.710;2023-03-25T02:31:40;7.60;;;2.88;;
30289;SDS011;17105;55.652;37.710;2023-03-25T02:32:19;7.30;;;3.30;;
30289;SDS011;17105;55.652;37.710;2023-03-25T02:33:14;7.72;;;2.88;;
30289;SDS011;17105;55.652;37.710;2023-03-25T02:34:56;8.77;;;3.13;;
30289;SDS011;17105;55.652;37.710;2023-03-25T02:35:36;12.35;;;4.28;;
30289;SDS011;17105;55.652;37.710;2023-03-25T02:36:31;9.65;;;3.85;;
30289;SDS011;17105;55.652;37.710;2023-03-25T02:37:16;10.77;;;3.60;;
30289;SDS011;17105;55.652;37.710;2023-03-25T02:38:51;8.95;;;3.42;;
30289;SDS011;17105;55.652;37.710;2023-03-25T02:39:30;6.72;;;3.20;;
30289;SDS011;17105;55.652;37.710;2023-03-25T02:40:07;10.75;;;3.33;;
30289;SDS011;17105;55.652;37.710;2023-03-25T02:40:43;10.93;;;4.10;;
30289;SDS011;17105;55.652;37.710;2023-03-25T02:41:19;7.43;;;3.03;;
30289;SDS011;17105;55.652;37.710;2023-03-25T02:41:59;9.15;;;3.13;;
30289;SDS011;17105;55.652;37.710;2023-03-25T02:43:13;9.70;;;3.38;;
30289;SDS011;17105;55.652;37.710;2023-03-25T02:43:52;6.18;;;2.72;;
30289;SDS011;17105;55.652;37.710;2023-03-25T02:44:30;10.82;;;3.47;;
30289;SDS011;17105;55.652;37.710;2023-03-25T02:45:09;9.68;;;3.25;;
30289;SDS011;17105;55.652;37.710;2023-03-25T02:45:45;7.05;;;3.22;;
30289;SDS011;17105;55.652;37.710;2023-03-25T02:46:20;13.82;;;3.40;;
30289;SDS011;17105;55.652;37.710;2023-03-25T02:46:56;7.28;;;3.03;;
30289;SDS011;17105;55.652;37.710;2023-03-25T02:47:33;12.75;;;3.60;;
30289;SDS011;17105;55.652;37.710;2023-03-25T02:48:09;11.93;;;4.18;;
30289;SDS011;17105;55.652;37.710;2023-03-25T02:48:45;10.52;;;3.58;;
30289;SDS011;17105;55.652;37.710;2023-03-25T02:49:21;8.43;;;3.25;;
30289;SDS011;17105;55.652;37.710;2023-03-25T02:49:58;9.18;;;3.70;;
30289;SDS011;17105;55.652;37.710;2023-03-25T02:50:37;12.32;;;3.38;;
30289;SDS011;17105;55.652;37.710;2023-03-25T02:51:13;11.45;;;4.22;;
30289;SDS011;17105;55.652;37.710;2023-03-25T02:51:51;8.50;;;3.63;;
30289;SDS011;17105;55.652;37.710;2023-03-25T02:52:28;8.05;;;3.50;;
30289;SDS011;17105;55.652;37.710;2023-03-25T02:53:05;11.02;;;3.20;;
30289;SDS011;17105;55.652;37.710;2023-03-25T02:53:43;10.98;;;3.70;;
30289;SDS011;17105;55.652;37.710;2023-03-25T02:54:21;6.50;;;2.90;;
30289;SDS011;17105;55.652;37.710;2023-03-25T02:54:59;11.55;;;4.03;;
30289;SDS011;17105;55.652;37.710;2023-03-25T02:55:37;9.90;;;3.38;;
30289;SDS011;17105;55.652;37.710;2023-03-25T02:56:14;9.52;;;3.35;;
30289;SDS011;17105;55.652;37.710;2023-03-25T02:56:48;9.00;;;4.00;;
30289;SDS011;17105;55.652;37.710;2023-03-25T02:58:05;14.25;;;3.22;;
30289;SDS011;17105;55.652;37.710;2023-03-25T02:58:42;9.10;;;3.50;;
30289;SDS011;17105;55.652;37.710;2023-03-25T02:59:18;9.95;;;3.33;;
30289;SDS011;17105;55.652;37.710;2023-03-25T02:59:54;8.23;;;3.10;;
30289;SDS011;17105;55.652;37.710;2023-03-25T03:00:33;8.10;;;3.00;;
30289;SDS011;17105;55.652;37.710;2023-03-25T03:01:10;9.68;;;3.65;;
30289;SDS011;17105;55.652;37.710;2023-03-25T03:01:46;12.98;;;3.75;;
30289;SDS011;17105;55.652;37.710;2023-03-25T03:02:25;8.73;;;3.45;;
30289;SDS011;17105;55.652;37.710;2023-03-25T03:03:01;8.60;;;3.40;;
30289;SDS011;17105;55.652;37.710;2023-03-25T03:03:37;8.95;;;3.63;;
30289;SDS011;17105;55.652;37.710;2023-03-25T03:04:12;11.93;;;3.85;;
30289;SDS011;17105;55.652;37.710;2023-03-25T03:04:47;9.98;;;4.20;;
30289;SDS011;17105;55.652;37.710;2023-03-25T03:05:23;13.93;;;4.18;;
30289;SDS011;17105;55.652;37.710;2023-03-25T03:05:58;7.90;;;3.20;;
30289;SDS011;17105;55.652;37.710;2023-03-25T03:06:37;8.13;;;3.38;;
30289;SDS011;17105;55.652;37.710;2023-03-25T03:07:14;8.55;;;3.58;;
30289;SDS011;17105;55.652;37.710;2023-03-25T03:07:52;7.13;;;3.10;;
30289;SDS011;17105;55.652;37.710;2023-03-25T03:08:33;8.02;;;3.10;;
30289;SDS011;17105;55.652;37.710;2023-03-25T03:09:25;9.07;;;3.47;;
30289;SDS011;17105;55.652;37.710;2023-03-25T03:10:05;8.23;;;2.83;;
30289;SDS011;17105;55.652;37.710;2023-03-25T03:10:47;7.20;;;2.58;;
30289;SDS011;17105;55.652;37.710;2023-03-25T03:11:23;10.35;;;3.25;;
30289;SDS011;17105;55.652;37.710;2023-03-25T03:12:08;7.43;;;3.28;;
30289;SDS011;17105;55.652;37.710;2023-03-25T03:12:48;9.95;;;3.22;;
30289;SDS011;17105;55.652;37.710;2023-03-25T03:13:27;6.93;;;3.28;;
30289;SDS011;17105;55.652;37.710;2023-03-25T03:14:07;8.43;;;3.10;;
30289;SDS011;17105;55.652;37.710;2023-03-25T03:14:49;7.55;;;3.30;;
30289;SDS011;17105;55.652;37.710;2023-03-25T03:15:29;9.23;;;3.28;;
30289;SDS011;17105;55.652;37.710;2023-03-25T03:16:08;7.05;;;3.50;;
30289;SDS011;17105;55.652;37.710;2023-03-25T03:16:46;9.68;;;4.25;;
30289;SDS011;17105;55.652;37.710;2023-03-25T03:17:24;9.10;;;3.30;;
30289;SDS011;17105;55.652;37.710;2023-03-25T03:18:07;9.85;;;3.47;;
30289;SDS011;17105;55.652;37.710;2023-03-25T03:19:10;10.05;;;3.25;;
30289;SDS011;17105;55.652;37.710;2023-03-25T03:19:53;7.95;;;3.40;;
30289;SDS011;17105;55.652;37.710;2023-03-25T03:20:30;8.80;;;3.17;;
30289;SDS011;17105;55.652;37.710;2023-03-25T03:21:08;12.68;;;3.88;;
30289;SDS011;17105;55.652;37.710;2023-03-25T03:21:50;6.93;;;3.25;;
30289;SDS011;17105;55.652;37.710;2023-03-25T03:22:30;8.80;;;3.08;;
30289;SDS011;17105;55.652;37.710;2023-03-25T03:23:08;8.40;;;3.20;;
30289;SDS011;17105;55.652;37.710;2023-03-25T03:23:48;8.35;;;3.28;;
30289;SDS011;17105;55.652;37.710;2023-03-25T03:24:26;6.80;;;3.15;;
30289;SDS011;17105;55.652;37.710;2023-03-25T03:25:03;11.90;;;3.53;;
30289;SDS011;17105;55.652;37.710;2023-03-25T03:25:43;10.00;;;3.30;;
30289;SDS011;17105;55.652;37.710;2023-03-25T03:26:19;9.65;;;3.80;;
30289;SDS011;17105;55.652;37.710;2023-03-25T03:26:58;7.25;;;3.63;;
30289;SDS011;17105;55.652;37.710;2023-03-25T03:27:36;8.93;;;3.30;;
30289;SDS011;17105;55.652;37.710;2023-03-25T03:28:13;7.95;;;3.42;;
30289;SDS011;17105;55.652;37.710;2023-03-25T03:28:48;9.23;;;3.17;;
30289;SDS011;17105;55.652;37.710;2023-03-25T03:29:27;8.13;;;3.17;;
30289;SDS011;17105;55.652;37.710;2023-03-25T03:30:04;10.88;;;3.60;;
30289;SDS011;17105;55.652;37.710;2023-03-25T03:30:41;10.15;;;3.03;;
30289;SDS011;17105;55.652;37.710;2023-03-25T03:31:19;9.23;;;2.88;;
30289;SDS011;17105;55.652;37.710;2023-03-25T03:32:16;8.93;;;2.90;;
30289;SDS011;17105;55.652;37.710;2023-03-25T03:32:55;7.45;;;3.20;;
30289;SDS011;17105;55.652;37.710;2023-03-25T03:33:34;11.50;;;3.33;;
30289;SDS011;17105;55.652;37.710;2023-03-25T03:34:12;9.10;;;3.35;;
30289;SDS011;17105;55.652;37.710;2023-03-25T03:34:48;8.70;;;3.38;;
30289;SDS011;17105;55.652;37.710;2023-03-25T03:35:26;8.25;;;3.10;;
30289;SDS011;17105;55.652;37.710;2023-03-25T03:36:01;9.45;;;3.17;;
30289;SDS011;17105;55.652;37.710;2023-03-25T03:36:40;9.52;;;3.10;;
30289;SDS011;17105;55.652;37.710;2023-03-25T03:37:17;8.02;;;3.03;;
30289;SDS011;17105;55.652;37.710;2023-03-25T03:37:55;8.13;;;3.22;;
30289;SDS011;17105;55.652;37.710;2023-03-25T03:38:31;8.10;;;3.25;;
30289;SDS011;17105;55.652;37.710;2023-03-25T03:39:08;9.05;;;2.70;;
30289;SDS011;17105;55.652;37.710;2023-03-25T03:39:47;10.02;;;3.15;;
30289;SDS011;17105;55.652;37.710;2023-03-25T03:40:23;13.35;;;3.53;;
30289;SDS011;17105;55.652;37.710;2023-03-25T03:40:59;9.90;;;3.67;;
30289;SDS011;17105;55.652;37.710;2023-03-25T03:41:36;13.68;;;5.75;;
30289;SDS011;17105;55.652;37.710;2023-03-25T03:42:13;7.25;;;3.53;;
30289;SDS011;17105;55.652;37.710;2023-03-25T03:42:51;8.27;;;3.42;;
30289;SDS011;17105;55.652;37.710;2023-03-25T03:43:25;21.77;;;8.63;;
30289;SDS011;17105;55.652;37.710;2023-03-25T03:44:02;9.82;;;4.18;;
30289;SDS011;17105;55.652;37.710;2023-03-25T03:44:37;8.38;;;3.58;;
30289;SDS011;17105;55.652;37.710;2023-03-25T03:45:16;7.82;;;3.22;;
30289;SDS011;17105;55.652;37.710;2023-03-25T03:45:50;8.63;;;3.35;;
30289;SDS011;17105;55.652;37.710;2023-03-25T03:46:27;8.25;;;3.05;;
30289;SDS011;17105;55.652;37.710;2023-03-25T03:47:05;10.60;;;3.47;;
30289;SDS011;17105;55.652;37.710;2023-03-25T03:47:42;76.57;;;32.67;;
30289;SDS011;17105;55.652;37.710;2023-03-25T03:48:21;8.15;;;3.45;;
30289;SDS011;17105;55.652;37.710;2023-03-25T03:48:57;401.75;;;148.80;;